createdAt,value
2017-05-07T00:00:35.791Z,0
2017-05-07T00:01:16.224Z,0
2017-05-07T00:01:56.677Z,0
2017-05-07T00:02:37.059Z,0
2017-05-07T00:03:17.498Z,0
2017-05-07T00:03:57.949Z,0
2017-05-07T00:04:38.390Z,0
2017-05-07T00:05:18.819Z,0
2017-05-07T00:05:59.234Z,0
2017-05-07T00:06:39.730Z,0
2017-05-07T00:07:20.134Z,0
2017-05-07T00:08:00.576Z,0
2017-05-07T00:08:41.014Z,0
2017-05-07T00:09:21.411Z,0
2017-05-07T00:10:01.856Z,0
2017-05-07T00:10:42.285Z,0
2017-05-07T00:11:22.711Z,0
2017-05-07T00:12:03.154Z,0
2017-05-07T00:12:43.515Z,0
2017-05-07T00:13:23.974Z,0
2017-05-07T00:14:04.397Z,0
2017-05-07T00:14:44.790Z,0
2017-05-07T00:15:25.283Z,0
2017-05-07T00:16:05.659Z,0
2017-05-07T00:16:46.151Z,0
2017-05-07T00:17:26.554Z,0
2017-05-07T00:18:06.978Z,0
2017-05-07T00:18:47.377Z,0
2017-05-07T00:19:27.789Z,0
2017-05-07T00:20:08.206Z,0
2017-05-07T00:20:48.625Z,0
2017-05-07T00:21:29.055Z,0
2017-05-07T00:22:09.472Z,0
2017-05-07T00:22:49.864Z,0
2017-05-07T00:23:30.316Z,0
2017-05-07T00:24:10.761Z,0
2017-05-07T00:24:51.193Z,0
2017-05-07T00:25:31.664Z,0
2017-05-07T00:26:12.071Z,0
2017-05-07T00:26:52.512Z,0
2017-05-07T00:27:32.903Z,0
2017-05-07T00:28:13.366Z,0
2017-05-07T00:28:53.804Z,0
2017-05-07T00:29:34.235Z,0
2017-05-07T00:30:14.657Z,0
2017-05-07T00:30:55.085Z,0
2017-05-07T00:31:35.486Z,0
2017-05-07T00:32:15.937Z,0
2017-05-07T00:32:56.374Z,0
2017-05-07T00:33:36.746Z,0
2017-05-07T00:34:17.170Z,0
2017-05-07T00:34:57.582Z,0
2017-05-07T00:35:38.050Z,0
2017-05-07T00:36:18.465Z,0
2017-05-07T00:36:58.899Z,0
2017-05-07T00:37:39.313Z,0
2017-05-07T00:38:19.743Z,0
2017-05-07T00:39:00.172Z,0
2017-05-07T00:39:40.573Z,0
2017-05-07T00:40:21.016Z,0
2017-05-07T00:41:01.433Z,0
2017-05-07T00:41:41.857Z,0
2017-05-07T00:42:22.321Z,0
2017-05-07T00:43:02.751Z,0
2017-05-07T00:43:43.188Z,0
2017-05-07T00:44:23.589Z,0
2017-05-07T00:45:04.039Z,0
2017-05-07T00:47:42.406Z,0
2017-05-07T00:48:22.812Z,0
2017-05-07T00:49:03.230Z,0
2017-05-07T00:49:43.678Z,0
2017-05-07T00:50:24.091Z,0
2017-05-07T00:51:04.498Z,0
2017-05-07T00:51:44.935Z,0
2017-05-07T00:52:25.477Z,0
2017-05-07T00:54:38.368Z,0
2017-05-07T00:55:18.822Z,0
2017-05-07T00:55:59.236Z,0
2017-05-07T00:56:40.421Z,0
2017-05-07T00:57:20.871Z,0
2017-05-07T00:58:01.266Z,0
2017-05-07T00:58:41.692Z,0
2017-05-07T00:59:22.067Z,0
2017-05-07T01:00:02.505Z,0
2017-05-07T01:00:42.934Z,0
2017-05-07T01:01:23.359Z,0
2017-05-07T01:02:03.770Z,0
2017-05-07T01:02:44.170Z,0
2017-05-07T01:03:24.595Z,0
2017-05-07T01:04:05.030Z,0
2017-05-07T01:04:45.452Z,0
2017-05-07T01:05:25.858Z,0
2017-05-07T01:06:06.268Z,0
2017-05-07T01:06:46.659Z,0
2017-05-07T01:07:27.085Z,0
2017-05-07T01:08:07.488Z,0
2017-05-07T01:08:47.888Z,0
2017-05-07T01:09:28.316Z,0
2017-05-07T01:10:08.708Z,0
2017-05-07T01:10:49.100Z,0
2017-05-07T01:11:29.527Z,0
2017-05-07T01:12:09.937Z,0
2017-05-07T01:12:50.355Z,0
2017-05-07T01:13:30.780Z,0
2017-05-07T01:14:11.187Z,0
2017-05-07T01:14:51.629Z,0
2017-05-07T01:15:32.028Z,0
2017-05-07T01:16:12.475Z,0
2017-05-07T01:16:52.889Z,0
2017-05-07T01:17:33.306Z,0
2017-05-07T01:18:13.724Z,0
2017-05-07T01:18:54.103Z,0
2017-05-07T01:19:34.523Z,0
2017-05-07T01:20:14.950Z,0
2017-05-07T01:20:55.359Z,0
2017-05-07T01:21:35.778Z,0
2017-05-07T01:22:16.195Z,0
2017-05-07T01:22:56.598Z,0
2017-05-07T01:23:37.036Z,0
2017-05-07T01:24:17.443Z,0
2017-05-07T01:24:57.907Z,0
2017-05-07T01:25:38.287Z,0
2017-05-07T01:26:18.725Z,0
2017-05-07T01:26:59.135Z,0
2017-05-07T01:27:39.553Z,0
2017-05-07T01:28:19.969Z,0
2017-05-07T01:30:37.972Z,0
2017-05-07T01:31:18.362Z,0
2017-05-07T01:31:58.797Z,0
2017-05-07T01:32:39.222Z,0
2017-05-07T01:33:19.654Z,0
2017-05-07T01:34:00.072Z,0
2017-05-07T01:34:40.469Z,0
2017-05-07T01:35:20.891Z,0
2017-05-07T01:36:01.299Z,0
2017-05-07T01:36:41.718Z,0
2017-05-07T01:37:22.135Z,0
2017-05-07T01:38:02.544Z,0
2017-05-07T01:38:42.950Z,0
2017-05-07T01:39:23.366Z,0
2017-05-07T01:40:03.788Z,0
2017-05-07T01:40:44.210Z,0
2017-05-07T01:41:24.644Z,0
2017-05-07T01:42:05.018Z,0
2017-05-07T01:42:45.423Z,0
2017-05-07T01:43:25.851Z,0
2017-05-07T01:44:06.278Z,0
2017-05-07T01:44:46.694Z,0
2017-05-07T01:45:27.118Z,0
2017-05-07T01:46:07.499Z,0
2017-05-07T01:46:47.904Z,0
2017-05-07T01:47:28.341Z,0
2017-05-07T01:48:08.731Z,0
2017-05-07T01:48:49.161Z,0
2017-05-07T01:49:29.594Z,0
2017-05-07T01:50:09.967Z,0
2017-05-07T01:50:50.395Z,0
2017-05-07T01:51:31.750Z,0
2017-05-07T01:52:12.190Z,0
2017-05-07T01:52:52.620Z,0
2017-05-07T01:53:33.060Z,0
2017-05-07T01:54:13.458Z,0
2017-05-07T01:54:53.869Z,0
2017-05-07T01:55:34.281Z,0
2017-05-07T01:56:14.688Z,0
2017-05-07T01:56:55.076Z,0
2017-05-07T01:57:35.502Z,0
2017-05-07T01:58:15.940Z,0
2017-05-07T01:58:56.322Z,0
2017-05-07T01:59:36.729Z,0
2017-05-07T02:00:17.125Z,0
2017-05-07T02:00:57.523Z,0
2017-05-07T02:01:37.966Z,0
2017-05-07T02:02:18.329Z,0
2017-05-07T02:02:58.766Z,0
2017-05-07T02:03:39.182Z,0
2017-05-07T02:04:19.604Z,0
2017-05-07T02:05:00.027Z,0
2017-05-07T02:05:40.437Z,0
2017-05-07T02:06:20.842Z,0
2017-05-07T02:07:01.279Z,0
2017-05-07T02:07:41.694Z,0
2017-05-07T02:08:22.153Z,0
2017-05-07T02:09:02.531Z,0
2017-05-07T02:09:42.981Z,0
2017-05-07T02:10:23.407Z,0
2017-05-07T02:11:03.841Z,0
2017-05-07T02:11:44.231Z,0
2017-05-07T02:12:24.678Z,0
2017-05-07T02:13:05.095Z,0
2017-05-07T02:13:45.521Z,0
2017-05-07T02:14:25.956Z,0
2017-05-07T02:15:06.379Z,0
2017-05-07T02:15:47.087Z,0
2017-05-07T02:16:27.564Z,0
2017-05-07T02:17:07.999Z,0
2017-05-07T02:17:48.413Z,0
2017-05-07T02:18:28.844Z,0
2017-05-07T02:19:09.256Z,0
2017-05-07T02:19:50.492Z,0
2017-05-07T02:20:30.900Z,0
2017-05-07T02:21:11.323Z,0
2017-05-07T02:21:51.731Z,0
2017-05-07T02:22:32.159Z,0
2017-05-07T02:23:13.184Z,0
2017-05-07T02:23:53.625Z,0
2017-05-07T02:24:34.392Z,0
2017-05-07T02:25:14.786Z,0
2017-05-07T02:25:55.583Z,0
2017-05-07T02:26:35.988Z,0
2017-05-07T02:27:16.390Z,0
2017-05-07T02:27:56.885Z,0
2017-05-07T02:28:39.782Z,0
2017-05-07T02:29:21.603Z,0
2017-05-07T02:30:02.051Z,0
2017-05-07T02:30:42.403Z,0
2017-05-07T02:31:22.844Z,0
2017-05-07T02:32:03.241Z,0
2017-05-07T02:32:43.683Z,0
2017-05-07T02:33:24.142Z,0
2017-05-07T02:34:04.696Z,0
2017-05-07T02:34:45.131Z,0
2017-05-07T02:35:25.501Z,0
2017-05-07T02:36:05.942Z,0
2017-05-07T02:36:46.348Z,0
2017-05-07T02:37:26.797Z,0
2017-05-07T02:38:07.227Z,0
2017-05-07T02:38:47.573Z,0
2017-05-07T02:39:28.006Z,0
2017-05-07T02:40:08.434Z,0
2017-05-07T02:40:48.882Z,0
2017-05-07T02:41:29.311Z,0
2017-05-07T02:42:09.702Z,0
2017-05-07T02:42:50.142Z,0
2017-05-07T02:43:30.573Z,0
2017-05-07T02:44:11.011Z,0
2017-05-07T02:44:51.386Z,0
2017-05-07T02:45:31.828Z,0
2017-05-07T02:46:12.264Z,0
2017-05-07T02:46:52.745Z,0
2017-05-07T02:47:33.098Z,0
2017-05-07T02:48:13.530Z,0
2017-05-07T02:48:54.948Z,0
2017-05-07T02:49:35.352Z,0
2017-05-07T02:50:15.870Z,0
2017-05-07T02:50:56.223Z,0
2017-05-07T02:51:36.658Z,0
2017-05-07T02:52:17.049Z,0
2017-05-07T02:52:57.552Z,0
2017-05-07T02:53:37.906Z,0
2017-05-07T02:54:18.360Z,0
2017-05-07T02:54:58.784Z,0
2017-05-07T02:55:40.363Z,0
2017-05-07T02:56:20.620Z,0
2017-05-07T02:58:49.194Z,0
2017-05-07T02:59:29.617Z,0
2017-05-07T03:00:10.031Z,0
2017-05-07T03:00:50.479Z,0
2017-05-07T03:01:30.912Z,0
2017-05-07T03:02:11.355Z,0
2017-05-07T03:02:51.774Z,0
2017-05-07T03:03:32.228Z,0
2017-05-07T03:04:12.628Z,0
2017-05-07T03:04:53.105Z,0
2017-05-07T03:05:33.514Z,0
2017-05-07T03:06:13.891Z,0
2017-05-07T03:06:54.312Z,0
2017-05-07T03:07:34.713Z,0
2017-05-07T03:08:15.145Z,0
2017-05-07T03:08:55.597Z,0
2017-05-07T03:09:35.990Z,0
2017-05-07T03:10:16.429Z,0
2017-05-07T03:10:56.812Z,0
2017-05-07T03:11:37.238Z,0
2017-05-07T03:12:17.673Z,0
2017-05-07T03:12:58.119Z,0
2017-05-07T03:13:38.536Z,0
2017-05-07T03:14:18.955Z,0
2017-05-07T03:14:59.369Z,0
2017-05-07T03:15:39.824Z,0
2017-05-07T03:16:20.213Z,0
2017-05-07T03:17:00.652Z,0
2017-05-07T03:17:41.078Z,0
2017-05-07T03:18:21.491Z,0
2017-05-07T03:19:01.916Z,0
2017-05-07T03:19:42.312Z,0
2017-05-07T03:20:22.726Z,0
2017-05-07T03:21:03.172Z,0
2017-05-07T03:21:43.542Z,0
2017-05-07T03:22:24.631Z,0
2017-05-07T03:23:05.057Z,0
2017-05-07T03:23:45.473Z,0
2017-05-07T03:24:25.863Z,0
2017-05-07T03:25:06.304Z,0
2017-05-07T03:25:46.753Z,0
2017-05-07T03:26:27.150Z,0
2017-05-07T03:28:45.205Z,0
2017-05-07T03:29:25.648Z,0
2017-05-07T03:30:06.075Z,0
2017-05-07T03:30:46.455Z,0
2017-05-07T03:31:26.886Z,0
2017-05-07T03:32:07.282Z,0
2017-05-07T03:32:47.708Z,0
2017-05-07T03:33:28.151Z,0
2017-05-07T03:34:08.569Z,0
2017-05-07T03:34:48.989Z,0
2017-05-07T03:35:29.400Z,0
2017-05-07T03:36:09.845Z,0
2017-05-07T03:36:50.247Z,0
2017-05-07T03:37:30.671Z,0
2017-05-07T03:38:11.101Z,0
2017-05-07T03:38:51.531Z,0
2017-05-07T03:39:31.900Z,0
2017-05-07T03:40:12.336Z,0
2017-05-07T03:40:52.790Z,0
2017-05-07T03:41:33.199Z,0
2017-05-07T03:42:13.585Z,0
2017-05-07T03:42:54.011Z,0
2017-05-07T03:43:34.437Z,0
2017-05-07T03:44:14.837Z,0
2017-05-07T03:44:55.288Z,0
2017-05-07T03:45:35.715Z,0
2017-05-07T03:46:16.135Z,0
2017-05-07T03:46:56.557Z,0
2017-05-07T03:47:36.957Z,0
2017-05-07T03:48:17.399Z,0
2017-05-07T03:48:57.822Z,5
2017-05-07T03:49:38.226Z,5
2017-05-07T03:50:18.651Z,5
2017-05-07T03:50:59.055Z,5
2017-05-07T03:51:39.481Z,5
2017-05-07T03:52:19.889Z,5
2017-05-07T03:53:00.313Z,5
2017-05-07T03:53:40.745Z,5
2017-05-07T03:54:21.158Z,5
2017-05-07T03:55:01.556Z,5
2017-05-07T03:55:41.989Z,5
2017-05-07T03:58:15.192Z,10
2017-05-07T03:58:55.617Z,10
2017-05-07T03:59:36.057Z,10
2017-05-07T04:00:16.462Z,10
2017-05-07T04:00:56.872Z,10
2017-05-07T04:01:37.308Z,10
2017-05-07T04:02:17.685Z,10
2017-05-07T04:02:58.153Z,10
2017-05-07T04:03:38.567Z,15
2017-05-07T04:04:18.958Z,15
2017-05-07T04:04:59.387Z,15
2017-05-07T04:05:39.812Z,15
2017-05-07T04:06:20.232Z,15
2017-05-07T04:07:00.638Z,15
2017-05-07T04:07:41.051Z,15
2017-05-07T04:08:21.443Z,15
2017-05-07T04:09:01.928Z,20
2017-05-07T04:09:42.291Z,20
2017-05-07T04:10:22.680Z,20
2017-05-07T04:11:03.106Z,20
2017-05-07T04:11:43.543Z,20
2017-05-07T04:12:23.934Z,20
2017-05-07T04:13:04.378Z,20
2017-05-07T04:13:45.424Z,25
2017-05-07T04:14:25.857Z,25
2017-05-07T04:15:07.014Z,25
2017-05-07T04:15:47.393Z,25
2017-05-07T04:16:27.819Z,25
2017-05-07T04:17:08.258Z,30
2017-05-07T04:17:48.662Z,30
2017-05-07T04:18:29.050Z,30
2017-05-07T04:19:09.496Z,35
2017-05-07T04:19:49.945Z,35
2017-05-07T04:20:30.319Z,35
2017-05-07T04:21:10.757Z,40
2017-05-07T04:21:51.190Z,40
2017-05-07T04:22:31.604Z,40
2017-05-07T04:23:11.992Z,40
2017-05-07T04:23:52.431Z,45
2017-05-07T04:24:32.855Z,45
2017-05-07T04:25:13.229Z,45
2017-05-07T04:25:53.680Z,45
2017-05-07T04:26:34.095Z,50
2017-05-07T04:27:14.494Z,50
2017-05-07T04:27:54.921Z,50
2017-05-07T04:28:35.303Z,55
2017-05-07T04:29:15.731Z,55
2017-05-07T04:29:56.140Z,55
2017-05-07T04:30:36.574Z,60
2017-05-07T04:31:16.944Z,60
2017-05-07T04:31:57.378Z,60
2017-05-07T04:32:37.753Z,65
2017-05-07T04:33:18.197Z,65
2017-05-07T04:33:58.608Z,65
2017-05-07T04:34:39.093Z,70
2017-05-07T04:35:19.438Z,70
2017-05-07T04:35:59.883Z,75
2017-05-07T04:36:40.315Z,75
2017-05-07T04:37:20.721Z,75
2017-05-07T04:38:01.119Z,80
2017-05-07T04:38:41.514Z,80
2017-05-07T04:39:21.955Z,85
2017-05-07T04:40:02.362Z,85
2017-05-07T04:40:42.800Z,85
2017-05-07T04:41:23.197Z,90
2017-05-07T04:42:03.605Z,90
2017-05-07T04:42:44.019Z,95
2017-05-07T04:43:24.416Z,95
2017-05-07T04:44:04.859Z,95
2017-05-07T04:44:45.271Z,100
2017-05-07T04:45:25.775Z,100
2017-05-07T04:46:06.206Z,100
2017-05-07T04:46:46.669Z,105
2017-05-07T04:47:27.051Z,105
2017-05-07T04:48:07.476Z,105
2017-05-07T04:48:47.927Z,110
2017-05-07T04:49:28.386Z,110
2017-05-07T04:50:08.825Z,110
2017-05-07T04:50:49.248Z,110
2017-05-07T04:51:29.663Z,110
2017-05-07T04:52:10.102Z,115
2017-05-07T04:52:50.540Z,115
2017-05-07T04:53:30.966Z,120
2017-05-07T04:54:11.487Z,120
2017-05-07T04:54:51.890Z,125
2017-05-07T04:55:32.307Z,130
2017-05-07T04:56:12.792Z,130
2017-05-07T04:56:53.145Z,135
2017-05-07T04:57:33.756Z,135
2017-05-07T04:58:13.979Z,140
2017-05-07T04:58:54.447Z,140
2017-05-07T04:59:35.096Z,145
2017-05-07T05:00:15.750Z,145
2017-05-07T05:00:56.172Z,145
2017-05-07T05:01:36.556Z,145
2017-05-07T05:02:16.996Z,145
2017-05-07T05:02:57.402Z,145
2017-05-07T05:03:37.845Z,140
2017-05-07T05:04:18.273Z,140
2017-05-07T05:04:58.685Z,140
2017-05-07T05:05:39.115Z,135
2017-05-07T05:06:19.551Z,135
2017-05-07T05:07:00.011Z,135
2017-05-07T05:07:40.527Z,135
2017-05-07T05:08:20.803Z,140
2017-05-07T05:09:01.206Z,140
2017-05-07T05:09:41.626Z,145
2017-05-07T05:10:22.054Z,150
2017-05-07T05:11:03.133Z,150
2017-05-07T05:11:43.493Z,155
2017-05-07T05:12:23.932Z,160
2017-05-07T05:13:04.347Z,160
2017-05-07T05:13:44.766Z,165
2017-05-07T05:14:27.904Z,165
2017-05-07T05:15:09.962Z,165
2017-05-07T05:15:50.378Z,165
2017-05-07T05:16:31.734Z,160
2017-05-07T05:17:12.127Z,160
2017-05-07T05:17:52.528Z,155
2017-05-07T05:18:32.949Z,145
2017-05-07T05:19:13.389Z,140
2017-05-07T05:19:53.742Z,135
2017-05-07T05:20:34.163Z,130
2017-05-07T05:21:14.644Z,125
2017-05-07T05:21:55.404Z,125
2017-05-07T05:22:36.031Z,120
2017-05-07T05:23:16.444Z,120
2017-05-07T05:23:56.866Z,120
2017-05-07T05:24:37.276Z,120
2017-05-07T05:25:17.712Z,125
2017-05-07T05:25:58.163Z,125
2017-05-07T05:26:38.549Z,130
2017-05-07T05:27:18.941Z,130
2017-05-07T05:27:59.583Z,135
2017-05-07T05:28:40.024Z,135
2017-05-07T05:29:20.415Z,140
2017-05-07T05:30:00.951Z,145
2017-05-07T05:30:41.487Z,150
2017-05-07T05:31:21.858Z,155
2017-05-07T05:32:02.344Z,155
2017-05-07T05:32:42.793Z,160
2017-05-07T05:33:23.177Z,165
2017-05-07T05:34:03.612Z,165
2017-05-07T05:34:44.034Z,170
2017-05-07T05:35:24.444Z,170
2017-05-07T05:36:04.887Z,175
2017-05-07T05:36:45.302Z,175
2017-05-07T05:37:25.717Z,175
2017-05-07T05:38:06.142Z,180
2017-05-07T05:38:46.534Z,185
2017-05-07T05:39:26.975Z,185
2017-05-07T05:40:07.356Z,185
2017-05-07T05:40:47.794Z,190
2017-05-07T05:41:28.214Z,190
2017-05-07T05:42:08.592Z,195
2017-05-07T05:42:49.018Z,195
2017-05-07T05:43:29.414Z,200
2017-05-07T05:44:09.840Z,200
2017-05-07T05:44:50.274Z,205
2017-05-07T05:45:30.676Z,205
2017-05-07T05:46:11.174Z,205
2017-05-07T05:46:51.599Z,210
2017-05-07T05:47:31.997Z,205
2017-05-07T05:48:12.407Z,205
2017-05-07T05:48:52.837Z,205
2017-05-07T05:49:33.253Z,205
2017-05-07T05:50:13.678Z,205
2017-05-07T05:50:54.115Z,210
2017-05-07T05:51:34.509Z,220
2017-05-07T05:52:14.956Z,230
2017-05-07T05:52:55.376Z,235
2017-05-07T05:53:35.807Z,240
2017-05-07T05:54:16.201Z,250
2017-05-07T05:54:56.594Z,255
2017-05-07T05:55:37.032Z,260
2017-05-07T05:56:17.468Z,265
2017-05-07T05:56:57.837Z,270
2017-05-07T05:57:38.277Z,270
2017-05-07T05:58:18.671Z,275
2017-05-07T05:58:59.074Z,280
2017-05-07T05:59:39.516Z,285
2017-05-07T06:00:19.946Z,290
2017-05-07T06:02:53.038Z,295
2017-05-07T06:03:33.497Z,295
2017-05-07T06:04:13.915Z,295
2017-05-07T06:04:54.308Z,295
2017-05-07T06:05:34.717Z,300
2017-05-07T06:06:15.155Z,300
2017-05-07T06:06:55.591Z,300
2017-05-07T06:07:36.022Z,305
2017-05-07T06:08:16.446Z,305
2017-05-07T06:08:56.871Z,310
2017-05-07T06:09:37.280Z,310
2017-05-07T06:10:17.652Z,315
2017-05-07T06:10:58.078Z,325
2017-05-07T06:11:38.501Z,325
2017-05-07T06:12:19.895Z,330
2017-05-07T06:13:04.140Z,330
2017-05-07T06:13:45.265Z,330
2017-05-07T06:14:31.349Z,325
2017-05-07T06:15:11.804Z,325
2017-05-07T06:15:57.874Z,325
2017-05-07T06:16:47.802Z,340
2017-05-07T06:17:31.775Z,355
2017-05-07T06:18:12.235Z,370
2017-05-07T06:18:53.573Z,375
2017-05-07T06:19:34.775Z,380
2017-05-07T06:20:15.169Z,385
2017-05-07T06:20:55.600Z,385
2017-05-07T06:21:36.037Z,385
2017-05-07T06:22:16.437Z,390
2017-05-07T06:22:56.870Z,390
2017-05-07T06:23:37.318Z,400
2017-05-07T06:24:17.735Z,395
2017-05-07T06:24:58.177Z,400
2017-05-07T06:25:38.553Z,400
2017-05-07T06:26:18.995Z,400
2017-05-07T06:26:59.401Z,400
2017-05-07T06:27:39.816Z,390
2017-05-07T06:28:20.248Z,380
2017-05-07T06:29:00.799Z,365
2017-05-07T06:29:41.070Z,355
2017-05-07T06:30:21.489Z,355
2017-05-07T06:31:01.931Z,345
2017-05-07T06:31:42.344Z,335
2017-05-07T06:32:22.745Z,325
2017-05-07T06:33:03.182Z,315
2017-05-07T06:33:43.589Z,310
2017-05-07T06:34:23.998Z,305
2017-05-07T06:35:04.396Z,300
2017-05-07T06:35:44.828Z,295
2017-05-07T06:36:25.287Z,285
2017-05-07T06:37:05.733Z,275
2017-05-07T06:37:46.138Z,265
2017-05-07T06:38:26.522Z,255
2017-05-07T06:39:06.962Z,245
2017-05-07T06:39:47.420Z,245
2017-05-07T06:40:27.810Z,245
2017-05-07T06:41:08.207Z,255
2017-05-07T06:41:48.633Z,255
2017-05-07T06:42:29.051Z,255
2017-05-07T06:43:09.472Z,250
2017-05-07T06:43:49.879Z,245
2017-05-07T06:44:30.302Z,240
2017-05-07T06:45:10.695Z,235
2017-05-07T06:45:51.097Z,225
2017-05-07T06:46:31.532Z,225
2017-05-07T06:47:11.945Z,220
2017-05-07T06:47:52.352Z,215
2017-05-07T06:48:32.790Z,210
2017-05-07T06:49:13.177Z,205
2017-05-07T06:49:53.605Z,200
2017-05-07T06:50:34.233Z,200
2017-05-07T06:51:14.619Z,195
2017-05-07T06:51:55.051Z,195
2017-05-07T06:52:35.756Z,200
2017-05-07T06:53:16.126Z,200
2017-05-07T06:53:56.578Z,205
2017-05-07T06:54:37.014Z,210
2017-05-07T06:55:17.417Z,210
2017-05-07T06:55:57.809Z,210
2017-05-07T06:56:38.204Z,215
2017-05-07T06:57:18.600Z,215
2017-05-07T06:57:59.050Z,215
2017-05-07T06:58:39.467Z,215
2017-05-07T06:59:19.882Z,215
2017-05-07T07:00:00.259Z,220
2017-05-07T07:00:40.708Z,220
2017-05-07T07:01:21.106Z,215
2017-05-07T07:02:01.540Z,215
2017-05-07T07:02:42.003Z,215
2017-05-07T07:03:22.420Z,215
2017-05-07T07:04:02.840Z,220
2017-05-07T07:04:43.237Z,220
2017-05-07T07:05:23.662Z,225
2017-05-07T07:06:04.078Z,235
2017-05-07T07:06:44.481Z,245
2017-05-07T07:07:24.964Z,250
2017-05-07T07:08:05.338Z,250
2017-05-07T07:08:45.804Z,250
2017-05-07T07:09:26.296Z,250
2017-05-07T07:10:07.681Z,250
2017-05-07T07:12:25.838Z,245
2017-05-07T07:13:06.312Z,245
2017-05-07T07:13:46.727Z,245
2017-05-07T07:14:27.146Z,250
2017-05-07T07:15:07.577Z,250
2017-05-07T07:15:48.011Z,260
2017-05-07T07:16:28.404Z,265
2017-05-07T07:17:08.825Z,275
2017-05-07T07:17:49.317Z,285
2017-05-07T07:18:29.639Z,295
2017-05-07T07:19:10.057Z,305
2017-05-07T07:19:50.482Z,315
2017-05-07T07:20:30.883Z,320
2017-05-07T07:21:11.299Z,330
2017-05-07T07:21:51.704Z,335
2017-05-07T07:22:32.105Z,340
2017-05-07T07:23:12.561Z,345
2017-05-07T07:23:52.918Z,355
2017-05-07T07:24:33.402Z,355
2017-05-07T07:25:13.862Z,365
2017-05-07T07:25:54.258Z,360
2017-05-07T07:26:34.690Z,360
2017-05-07T07:27:15.114Z,365
2017-05-07T07:27:56.142Z,360
2017-05-07T07:28:36.554Z,355
2017-05-07T07:29:17.022Z,350
2017-05-07T07:29:57.492Z,345
2017-05-07T07:30:37.898Z,340
2017-05-07T07:31:18.313Z,335
2017-05-07T07:31:58.768Z,340
2017-05-07T07:32:39.292Z,345
2017-05-07T07:33:19.781Z,350
2017-05-07T07:34:00.151Z,360
2017-05-07T07:34:40.557Z,375
2017-05-07T07:35:20.932Z,390
2017-05-07T07:36:01.350Z,405
2017-05-07T07:36:41.747Z,420
2017-05-07T07:37:22.189Z,430
2017-05-07T07:38:02.599Z,445
2017-05-07T07:38:43.011Z,450
2017-05-07T07:39:23.445Z,460
2017-05-07T07:40:03.851Z,465
2017-05-07T07:40:44.283Z,470
2017-05-07T07:41:24.701Z,475
2017-05-07T07:42:05.261Z,480
2017-05-07T07:42:45.768Z,485
2017-05-07T07:43:27.690Z,485
2017-05-07T07:44:11.313Z,480
2017-05-07T07:47:04.064Z,460
2017-05-07T07:50:01.944Z,470
2017-05-07T07:50:44.543Z,475
2017-05-07T07:51:31.713Z,470
2017-05-07T07:52:21.256Z,470
2017-05-07T07:53:05.444Z,465
2017-05-07T07:53:52.709Z,465
2017-05-07T07:54:38.158Z,470
2017-05-07T07:55:21.307Z,475
2017-05-07T07:56:01.736Z,485
2017-05-07T07:56:42.678Z,490
2017-05-07T07:59:10.839Z,485
2017-05-07T07:59:51.284Z,480
2017-05-07T08:00:31.672Z,480
2017-05-07T08:01:12.075Z,470
2017-05-07T08:01:52.475Z,460
2017-05-07T08:02:32.905Z,450
2017-05-07T08:03:13.321Z,450
2017-05-07T08:03:53.718Z,455
2017-05-07T08:04:34.137Z,450
2017-05-07T08:06:46.983Z,420
2017-05-07T08:07:27.412Z,410
2017-05-07T08:08:07.857Z,410
2017-05-07T08:08:48.285Z,405
2017-05-07T08:09:28.703Z,400
2017-05-07T08:10:09.090Z,385
2017-05-07T08:10:49.607Z,380
2017-05-07T08:11:30.033Z,375
2017-05-07T08:12:10.448Z,365
2017-05-07T08:12:50.866Z,360
2017-05-07T08:13:31.280Z,360
2017-05-07T08:14:11.726Z,355
2017-05-07T08:14:52.092Z,350
2017-05-07T08:17:05.048Z,345
2017-05-07T08:17:45.500Z,340
2017-05-07T08:18:25.877Z,335
2017-05-07T08:19:06.285Z,330
2017-05-07T08:19:46.655Z,320
2017-05-07T08:20:27.112Z,320
2017-05-07T08:21:07.536Z,320
2017-05-07T08:21:47.979Z,320
2017-05-07T08:22:28.367Z,320
2017-05-07T08:23:08.813Z,320
2017-05-07T08:23:50.908Z,330
2017-05-07T08:24:36.021Z,330
2017-05-07T08:25:16.511Z,335
2017-05-07T08:25:56.913Z,335
2017-05-07T08:26:37.404Z,335
2017-05-07T08:27:17.748Z,335
2017-05-07T08:27:58.175Z,320
2017-05-07T08:28:38.579Z,330
2017-05-07T08:29:18.998Z,340
2017-05-07T08:29:59.376Z,340
2017-05-07T08:30:39.789Z,360
2017-05-07T08:31:20.236Z,375
2017-05-07T08:32:00.591Z,385
2017-05-07T08:32:41.005Z,390
2017-05-07T08:33:23.217Z,395
2017-05-07T08:34:03.617Z,395
2017-05-07T08:34:44.078Z,390
2017-05-07T08:35:24.458Z,385
2017-05-07T08:36:04.896Z,390
2017-05-07T08:36:45.276Z,395
2017-05-07T08:37:25.718Z,400
2017-05-07T08:38:06.095Z,405
2017-05-07T08:38:46.498Z,410
2017-05-07T08:39:26.921Z,415
2017-05-07T08:40:07.334Z,420
2017-05-07T08:40:47.767Z,415
2017-05-07T08:41:28.165Z,410
2017-05-07T08:42:08.604Z,400
2017-05-07T08:42:49.053Z,385
2017-05-07T08:43:29.408Z,370
2017-05-07T08:44:09.846Z,360
2017-05-07T08:44:50.286Z,345
2017-05-07T08:45:30.722Z,340
2017-05-07T08:46:11.172Z,330
2017-05-07T08:46:51.608Z,325
2017-05-07T08:47:31.979Z,325
2017-05-07T08:48:13.999Z,330
2017-05-07T08:48:54.371Z,330
2017-05-07T08:49:34.838Z,335
2017-05-07T08:50:15.253Z,340
2017-05-07T08:50:55.699Z,345
2017-05-07T08:51:36.103Z,350
2017-05-07T08:52:16.529Z,350
2017-05-07T08:52:56.943Z,350
2017-05-07T08:53:37.373Z,350
2017-05-07T08:54:17.777Z,350
2017-05-07T08:54:58.186Z,345
2017-05-07T08:55:38.623Z,340
2017-05-07T08:56:19.019Z,335
2017-05-07T08:56:59.533Z,330
2017-05-07T08:57:39.936Z,325
2017-05-07T08:58:20.388Z,320
2017-05-07T08:59:00.756Z,315
2017-05-07T08:59:41.222Z,310
2017-05-07T09:00:21.605Z,310
2017-05-07T09:01:02.031Z,305
2017-05-07T09:01:42.435Z,305
2017-05-07T09:02:22.852Z,300
2017-05-07T09:03:03.274Z,295
2017-05-07T09:03:43.696Z,290
2017-05-07T09:04:24.097Z,285
2017-05-07T09:05:04.504Z,285
2017-05-07T09:05:44.964Z,280
2017-05-07T09:06:25.423Z,280
2017-05-07T09:07:07.639Z,275
2017-05-07T09:07:47.936Z,275
2017-05-07T09:08:28.356Z,275
2017-05-07T09:09:08.766Z,275
2017-05-07T09:09:49.225Z,270
2017-05-07T09:10:29.617Z,275
2017-05-07T09:11:10.030Z,275
2017-05-07T09:11:50.473Z,280
2017-05-07T09:12:31.020Z,285
2017-05-07T09:13:11.400Z,290
2017-05-07T09:13:51.797Z,295
2017-05-07T09:14:32.188Z,295
2017-05-07T09:15:12.602Z,305
2017-05-07T09:15:53.035Z,305
2017-05-07T09:16:33.424Z,310
2017-05-07T09:17:13.805Z,305
2017-05-07T09:17:54.186Z,300
2017-05-07T09:20:34.058Z,310
2017-05-07T09:21:14.513Z,310
2017-05-07T09:21:54.890Z,305
2017-05-07T09:22:35.318Z,305
2017-05-07T09:23:15.718Z,305
2017-05-07T09:23:56.146Z,305
2017-05-07T09:24:36.521Z,300
2017-05-07T09:25:16.986Z,300
2017-05-07T09:25:57.317Z,300
2017-05-07T09:26:37.748Z,295
2017-05-07T09:27:18.163Z,295
2017-05-07T09:27:58.570Z,295
2017-05-07T09:28:39.002Z,295
2017-05-07T09:29:19.421Z,300
2017-05-07T09:29:59.808Z,305
2017-05-07T09:30:40.260Z,310
2017-05-07T09:31:20.731Z,315
2017-05-07T09:32:01.120Z,320
2017-05-07T09:32:41.593Z,325
2017-05-07T09:33:26.071Z,335
2017-05-07T09:34:13.185Z,340
2017-05-07T09:34:55.427Z,340
2017-05-07T09:35:37.856Z,340
2017-05-07T09:36:19.544Z,345
2017-05-07T09:38:36.594Z,350
2017-05-07T09:39:19.878Z,355
2017-05-07T09:40:03.460Z,355
2017-05-07T09:40:43.157Z,355
2017-05-07T09:41:26.205Z,360
2017-05-07T09:42:06.047Z,360
2017-05-07T09:42:46.503Z,360
2017-05-07T09:43:26.902Z,365
2017-05-07T09:44:07.313Z,365
2017-05-07T09:44:47.742Z,370
2017-05-07T09:45:28.522Z,375
2017-05-07T09:46:09.567Z,380
2017-05-07T09:46:50.000Z,390
2017-05-07T09:47:30.451Z,395
2017-05-07T09:48:10.857Z,405
2017-05-07T09:48:51.281Z,415
2017-05-07T09:49:31.694Z,425
2017-05-07T09:50:12.246Z,435
2017-05-07T09:50:52.615Z,450
2017-05-07T09:51:33.019Z,455
2017-05-07T09:52:13.484Z,465
2017-05-07T09:52:53.922Z,465
2017-05-07T09:53:34.337Z,475
2017-05-07T09:54:14.758Z,480
2017-05-07T09:54:55.171Z,485
2017-05-07T09:55:35.564Z,490
2017-05-07T09:56:16.001Z,500
2017-05-07T09:56:56.376Z,500
2017-05-07T09:57:36.792Z,505
2017-05-07T09:58:17.273Z,505
2017-05-07T09:58:57.634Z,515
2017-05-07T09:59:38.049Z,515
2017-05-07T10:00:18.471Z,525
2017-05-07T10:00:58.901Z,520
2017-05-07T10:01:39.316Z,525
2017-05-07T10:02:19.748Z,530
2017-05-07T10:03:00.171Z,530